Hauptseite
METAR-TAF:

METAR-TAF

Flughäfen :

Flughafen Dresden

Dresden, Deutschland

Breite: 51-08N, Länge: 013-45E, Höhe: 230 m

Beobachtung

Neuester Wetterbericht von vor 31 Minuten, um 03:50 UTC
Wind 4 kt aus Süd
Temperatur 7°C
Luftfeuchtigkeit 93%
Luftdruck 1023 hPa
Sichtweite 10 km oder mehr
Durchbrochene Bewölkung in der Höhe von 4200 ft

METAR: EDDC 180350Z 19004KT 9999 BKN042 07/06 Q1023 NOSIG

Zeit: 06:21 (04:21 UTC)

Prognose

Neuester Wetterbericht von vor 5 Stunden und 21 Minuten, um 23:00 UTC
Gültige Prognose vom 18 um 00 UTC bis 18 um 24 UTC
Wind 4 kt aus Süd
Sichtweite 10 km oder mehr
keine Wolken unter 1500 m und keine Kumulonimbus oder Gewitterwolken
Übergehend zu
vom 18 um 07 UTC bis 18 um 09 UTC
Wind 5 kt aus West/Südwest
Übergehend zu
vom 18 um 15 UTC bis 18 um 17 UTC
Wind 5 kt aus Süd

TAF: EDDC 172300Z 1800/1824 19004KT CAVOK BECMG 1807/1809 25005KT BECMG 1815/1817 17005KT

Wetterbeobachtungen und Prognosen von mehr als 4000 Flughäfen (METAR und TAF Bericht).

Die verfügbaren Stationen werden durch gelbe und rote Markierungen auf der Karte dargestellt.

Führen Sie die Maus auf sie, um den Namen der Station zu sehen.

Darauf klicken, um die Beobachtung von Wetterbeobachtungen und Prognosen zu sehen.

Um die Karte zu ändern : klicken Sie auf den grünen Tasten mit einem schwarzen Kreuz Zum Vergrößern, auf den grünen Button mit einem Gedankenstrich zu verkleinern, oder auf die grünen Pfeile für benachbarte Karten.


METAR-TAF: